Yogi Berra — WDF2990 — position and weather

sailwx.info

Track history (hours):
 
Tides and Currents Weather Stations Pressure Air Temp Water Temp Dewpoint Dewpoint Depression Visibility Wind Speed Wind Dir Waves Ship Positions

Yogi Berra

Owner: PORT IMPERIAL FERRY, WEEHAWKEN, NJ. More information available from US FCC via Universal Licensing System and Coast Guard Vessel Documentation Center.

Last reported at 2018-Jan-19 15:16 UTC. Time now 2018-Jan-21 04:55 UTC.
Position N 40°46' W 074°01'.

Length 25 m; draft 2 m.

Type: Passenger vessel. MMSI: 367434220.

Date/timePositionNaut miles runAvg speedWind from/ knotsBaromVisibWave heightAir tempDewpointWater temp
2018-Jan-19 15:16N 40°46' W 074°01'2 8.6
2018-Jan-19 15:00N 40°44' W 074°02'3 5.9
2018-Jan-19 14:31N 40°43' W 073°58'2 4.0
2018-Jan-19 14:00N 40°45' W 073°58'3 5.6
2018-Jan-19 13:30N 40°42' W 073°60'2 3.5
2018-Jan-19 13:00N 40°43' W 073°58'1 2.5
2018-Jan-19 12:31N 40°44' W 073°58'3 5.6
2018-Jan-19 12:00N 40°42' W 073°60'1 2.7
2018-Jan-19 11:31N 40°43' W 074°01'3 0.3
2018-Jan-19 00:36N 40°46' W 074°01'219.0
2018-Jan-19 00:30N 40°44' W 074°01'3 5.5
2018-Jan-19 00:00N 40°43' W 073°58'1 2.0
2018-Jan-18 23:30N 40°44' W 073°58'2 4.6
2018-Jan-18 23:00N 40°42' W 073°60'2 3.5
2018-Jan-18 22:30N 40°43' W 073°58'1 1.3
2018-Jan-18 22:00N 40°44' W 073°58'3 5.0
2018-Jan-18 21:30N 40°42' W 074°00'4 8.2
2018-Jan-18 21:00N 40°46' W 074°00'0 0.1
2018-Jan-18 15:18N 40°47' W 074°01'412.1
2018-Jan-18 15:01N 40°43' W 074°01'3 5.0
2018-Jan-18 14:30N 40°43' W 073°58'1 2.5
2018-Jan-18 14:00N 40°44' W 073°58'3 5.2
2018-Jan-18 13:30N 40°42' W 073°60'2 3.5
2018-Jan-18 13:00N 40°43' W 073°58'1 1.2
2018-Jan-18 12:29N 40°44' W 073°58'2 4.9
2018-Jan-18 12:00N 40°42' W 074°00'2 5.0
2018-Jan-18 11:30N 40°45' W 074°01'2 0.2
2018-Jan-18 00:48N 40°46' W 074°01'4 4.9
2018-Jan-18 00:01N 40°43' W 073°58'0 7.5
2018-Jan-17 23:57N 40°43' W 073°58'  
2018-Jan-12 15:00N 40°46' W 074°01'0 0.0
2018-Jan-12 14:30N 40°46' W 074°01'0 0.0
2018-Jan-12 14:00N 40°46' W 074°01'0 0.0
2018-Jan-12 13:30N 40°46' W 074°01'0 0.0
2018-Jan-12 13:00N 40°46' W 074°01'0 0.0
2018-Jan-12 12:30N 40°46' W 074°01'0 0.0
2018-Jan-12 12:00N 40°46' W 074°01'0 0.0
2018-Jan-12 11:30N 40°46' W 074°01'0 0.0
2018-Jan-12 10:59N 40°46' W 074°01'0 0.0
2018-Jan-12 00:49N 40°46' W 074°01'2 6.1
2018-Jan-12 00:31N 40°44' W 074°01'3 5.6
2018-Jan-12 00:01N 40°43' W 073°58'2 3.2
2018-Jan-11 23:30N 40°44' W 073°58'3 5.2
2018-Jan-11 23:00N 40°42' W 073°60'2 3.6
2018-Jan-11 22:30N 40°43' W 073°58'1 1.4
2018-Jan-11 22:00N 40°44' W 073°58'3 4.9
2018-Jan-11 21:29N 40°42' W 074°00'1 1.6
2018-Jan-11 21:00N 40°42' W 074°01'4 0.8
2018-Jan-11 15:29N 40°46' W 074°01'3 6.8
2018-Jan-11 15:01N 40°43' W 074°01'2 4.9
2018-Jan-11 14:30N 40°43' W 073°58'1 2.6
2018-Jan-11 14:00N 40°44' W 073°58'3 5.0
2018-Jan-11 13:30N 40°42' W 073°60'2 3.5
2018-Jan-11 13:00N 40°43' W 073°58'1 1.2
2018-Jan-11 12:30N 40°44' W 073°58'3 5.2
2018-Jan-11 12:00N 40°42' W 074°00'3 6.9
2018-Jan-11 11:30N 40°46' W 074°01'1 1.3
2018-Jan-11 11:00N 40°46' W 074°01'0 0.0
2018-Jan-11 00:41N 40°46' W 074°01'1 4.6
2018-Jan-11 00:30N 40°45' W 074°01'3 6.4
2018-Jan-11 00:00N 40°43' W 073°58'1 1.4
2018-Jan-10 23:30N 40°44' W 073°58'2 4.9
2018-Jan-10 23:00N 40°42' W 074°00'2 4.0
2018-Jan-10 22:30N 40°43' W 073°58'1 1.2
2018-Jan-10 22:01N 40°44' W 073°58'3 4.9
2018-Jan-10 21:30N 40°42' W 074°00'4 7.4
2018-Jan-10 21:00N 40°46' W 074°00'1 0.2
2018-Jan-10 15:00N 40°45' W 074°01'3 1.1
2018-Jan-10 12:34N 40°44' W 073°58'1 6.7
2018-Jan-10 12:26N 40°44' W 073°58'2 5.4
2018-Jan-10 12:00N 40°42' W 074°00'2 4.5
2018-Jan-10 11:30N 40°44' W 074°01'2 0.2
2018-Jan-10 00:34N 40°46' W 074°01'1 9.6
2018-Jan-10 00:30N 40°46' W 074°01'3 6.8
2018-Jan-10 00:00N 40°43' W 073°58'1 1.7
2018-Jan-09 23:30N 40°44' W 073°58'2 5.0
2018-Jan-09 23:01N 40°42' W 074°00'2 4.0
2018-Jan-09 22:30N 40°43' W 073°58'1 1.2
2018-Jan-09 22:00N 40°44' W 073°58'3 5.1
2018-Jan-09 21:30N 40°42' W 074°00'  
Track history (hours):
 
Tides and Currents Weather Stations Pressure Air Temp Water Temp Dewpoint Dewpoint Depression Visibility Wind Speed Wind Dir Waves Ship Positions

Yogi Berra

Owner: PORT IMPERIAL FERRY, WEEHAWKEN, NJ. More information available from US FCC via Universal Licensing System and Coast Guard Vessel Documentation Center.

Last reported at 2018-Jan-19 15:16 UTC. Time now 2018-Jan-21 04:55 UTC.
Position N 40°46' W 074°01'.

Length 25 m; draft 2 m.

Type: Passenger vessel. MMSI: 367434220.

Date/timePositionNaut miles runAvg speedWind from/ knotsBaromVisibWave heightAir tempDewpointWater temp
2018-Jan-19 15:16N 40°46' W 074°01'2 8.6
2018-Jan-19 15:00N 40°44' W 074°02'3 5.9
2018-Jan-19 14:31N 40°43' W 073°58'2 4.0
2018-Jan-19 14:00N 40°45' W 073°58'3 5.6
2018-Jan-19 13:30N 40°42' W 073°60'2 3.5
2018-Jan-19 13:00N 40°43' W 073°58'1 2.5
2018-Jan-19 12:31N 40°44' W 073°58'3 5.6
2018-Jan-19 12:00N 40°42' W 073°60'1 2.7
2018-Jan-19 11:31N 40°43' W 074°01'3 0.3
2018-Jan-19 00:36N 40°46' W 074°01'219.0
2018-Jan-19 00:30N 40°44' W 074°01'3 5.5
2018-Jan-19 00:00N 40°43' W 073°58'1 2.0
2018-Jan-18 23:30N 40°44' W 073°58'2 4.6
2018-Jan-18 23:00N 40°42' W 073°60'2 3.5
2018-Jan-18 22:30N 40°43' W 073°58'1 1.3
2018-Jan-18 22:00N 40°44' W 073°58'3 5.0
2018-Jan-18 21:30N 40°42' W 074°00'4 8.2
2018-Jan-18 21:00N 40°46' W 074°00'0 0.1
2018-Jan-18 15:18N 40°47' W 074°01'412.1
2018-Jan-18 15:01N 40°43' W 074°01'3 5.0
2018-Jan-18 14:30N 40°43' W 073°58'1 2.5
2018-Jan-18 14:00N 40°44' W 073°58'3 5.2
2018-Jan-18 13:30N 40°42' W 073°60'2 3.5
2018-Jan-18 13:00N 40°43' W 073°58'1 1.2
2018-Jan-18 12:29N 40°44' W 073°58'2 4.9
2018-Jan-18 12:00N 40°42' W 074°00'2 5.0
2018-Jan-18 11:30N 40°45' W 074°01'2 0.2
2018-Jan-18 00:48N 40°46' W 074°01'4 4.9
2018-Jan-18 00:01N 40°43' W 073°58'0 7.5
2018-Jan-17 23:57N 40°43' W 073°58'  
2018-Jan-12 15:00N 40°46' W 074°01'0 0.0
2018-Jan-12 14:30N 40°46' W 074°01'0 0.0
2018-Jan-12 14:00N 40°46' W 074°01'0 0.0
2018-Jan-12 13:30N 40°46' W 074°01'0 0.0
2018-Jan-12 13:00N 40°46' W 074°01'0 0.0
2018-Jan-12 12:30N 40°46' W 074°01'0 0.0
2018-Jan-12 12:00N 40°46' W 074°01'0 0.0
2018-Jan-12 11:30N 40°46' W 074°01'0 0.0
2018-Jan-12 10:59N 40°46' W 074°01'0 0.0
2018-Jan-12 00:49N 40°46' W 074°01'2 6.1
2018-Jan-12 00:31N 40°44' W 074°01'3 5.6
2018-Jan-12 00:01N 40°43' W 073°58'2 3.2
2018-Jan-11 23:30N 40°44' W 073°58'3 5.2
2018-Jan-11 23:00N 40°42' W 073°60'2 3.6
2018-Jan-11 22:30N 40°43' W 073°58'1 1.4
2018-Jan-11 22:00N 40°44' W 073°58'3 4.9
2018-Jan-11 21:29N 40°42' W 074°00'1 1.6
2018-Jan-11 21:00N 40°42' W 074°01'4 0.8
2018-Jan-11 15:29N 40°46' W 074°01'3 6.8
2018-Jan-11 15:01N 40°43' W 074°01'2 4.9
2018-Jan-11 14:30N 40°43' W 073°58'1 2.6
2018-Jan-11 14:00N 40°44' W 073°58'3 5.0
2018-Jan-11 13:30N 40°42' W 073°60'2 3.5
2018-Jan-11 13:00N 40°43' W 073°58'1 1.2
2018-Jan-11 12:30N 40°44' W 073°58'3 5.2
2018-Jan-11 12:00N 40°42' W 074°00'3 6.9
2018-Jan-11 11:30N 40°46' W 074°01'1 1.3
2018-Jan-11 11:00N 40°46' W 074°01'0 0.0
2018-Jan-11 00:41N 40°46' W 074°01'1 4.6
2018-Jan-11 00:30N 40°45' W 074°01'3 6.4
2018-Jan-11 00:00N 40°43' W 073°58'1 1.4
2018-Jan-10 23:30N 40°44' W 073°58'2 4.9
2018-Jan-10 23:00N 40°42' W 074°00'2 4.0
2018-Jan-10 22:30N 40°43' W 073°58'1 1.2
2018-Jan-10 22:01N 40°44' W 073°58'3 4.9
2018-Jan-10 21:30N 40°42' W 074°00'4 7.4
2018-Jan-10 21:00N 40°46' W 074°00'1 0.2
2018-Jan-10 15:00N 40°45' W 074°01'3 1.1
2018-Jan-10 12:34N 40°44' W 073°58'1 6.7
2018-Jan-10 12:26N 40°44' W 073°58'2 5.4
2018-Jan-10 12:00N 40°42' W 074°00'2 4.5
2018-Jan-10 11:30N 40°44' W 074°01'2 0.2
2018-Jan-10 00:34N 40°46' W 074°01'1 9.6
2018-Jan-10 00:30N 40°46' W 074°01'3 6.8
2018-Jan-10 00:00N 40°43' W 073°58'1 1.7
2018-Jan-09 23:30N 40°44' W 073°58'2 5.0
2018-Jan-09 23:01N 40°42' W 074°00'2 4.0
2018-Jan-09 22:30N 40°43' W 073°58'1 1.2
2018-Jan-09 22:00N 40°44' W 073°58'3 5.1
2018-Jan-09 21:30N 40°42' W 074°00'  

Dump ship's entire track history